Terminal Aerodrome Forecast
Issued by NWS

Home | Current Version | Previous Version | Text Only | Print | Product List | Glossary On
Versions: 1 2 3 4 5 6 7 8 9 10 11 12 13 14 15 16 17 18 19 20 21 22 23 24 25 26 27 28 29 30 31 32 33 34 35 36
000
FTUS44 KBMX 182359 CCA
TAFMGM
TAF COR
KMGM 182359Z 1900/1924 20007KT P6SM FEW008 BKN035 BKN150
      TEMPO 1900/1902 BKN015
     FM190600 VRB03KT P6SM SCT004 OVC015
      TEMPO 1910/1914 4SM BR OVC007
     FM191500 23006KT P6SM BKN040
     FM191800 25010KT P6SM VCTS SCT020 BKN050CB=

USA.gov is the U.S. government's official web portal to all federal, state and local government web resources and services.